sensor_id;sensor_type;location;lat;lon;timestamp;P1;durP1;ratioP1;P2;durP2;ratioP2
19388;SDS011;9830;41.876;23.474;2023-04-24T00:01:28;0.40;;;0.40;;
19388;SDS011;9830;41.876;23.474;2023-04-24T00:03:54;1.33;;;0.83;;
19388;SDS011;9830;41.876;23.474;2023-04-24T00:06:24;0.50;;;0.50;;
19388;SDS011;9830;41.876;23.474;2023-04-24T00:08:57;8.13;;;0.70;;
19388;SDS011;9830;41.876;23.474;2023-04-24T00:11:24;0.70;;;0.70;;
19388;SDS011;9830;41.876;23.474;2023-04-24T00:13:50;1.17;;;1.07;;
19388;SDS011;9830;41.876;23.474;2023-04-24T00:16:15;2.40;;;1.17;;
19388;SDS011;9830;41.876;23.474;2023-04-24T00:18:41;0.63;;;0.63;;
19388;SDS011;9830;41.876;23.474;2023-04-24T00:21:07;0.30;;;0.30;;
19388;SDS011;9830;41.876;23.474;2023-04-24T00:23:32;2.17;;;1.00;;
19388;SDS011;9830;41.876;23.474;2023-04-24T00:25:58;0.87;;;0.57;;
19388;SDS011;9830;41.876;23.474;2023-04-24T00:28:24;1.03;;;0.73;;
19388;SDS011;9830;41.876;23.474;2023-04-24T00:30:49;8.40;;;1.43;;
19388;SDS011;9830;41.876;23.474;2023-04-24T00:33:15;0.60;;;0.60;;
19388;SDS011;9830;41.876;23.474;2023-04-24T00:35:41;1.70;;;0.80;;
19388;SDS011;9830;41.876;23.474;2023-04-24T00:38:06;0.37;;;0.37;;
19388;SDS011;9830;41.876;23.474;2023-04-24T00:40:32;0.83;;;0.73;;
19388;SDS011;9830;41.876;23.474;2023-04-24T00:42:58;1.20;;;1.10;;
19388;SDS011;9830;41.876;23.474;2023-04-24T00:45:23;3.03;;;1.70;;
19388;SDS011;9830;41.876;23.474;2023-04-24T00:47:49;1.03;;;0.93;;
19388;SDS011;9830;41.876;23.474;2023-04-24T00:50:18;0.43;;;0.43;;
19388;SDS011;9830;41.876;23.474;2023-04-24T00:52:44;1.73;;;1.27;;
19388;SDS011;9830;41.876;23.474;2023-04-24T00:55:10;0.73;;;0.70;;
19388;SDS011;9830;41.876;23.474;2023-04-24T00:57:36;2.10;;;1.83;;
19388;SDS011;9830;41.876;23.474;2023-04-24T01:00:03;15.13;;;2.60;;
19388;SDS011;9830;41.876;23.474;2023-04-24T01:02:30;1.83;;;1.07;;
19388;SDS011;9830;41.876;23.474;2023-04-24T01:04:59;2.73;;;1.23;;
19388;SDS011;9830;41.876;23.474;2023-04-24T01:07:26;1.80;;;1.10;;
19388;SDS011;9830;41.876;23.474;2023-04-24T01:09:52;0.70;;;0.57;;
19388;SDS011;9830;41.876;23.474;2023-04-24T01:12:18;3.37;;;1.47;;
19388;SDS011;9830;41.876;23.474;2023-04-24T01:14:44;0.63;;;0.63;;
19388;SDS011;9830;41.876;23.474;2023-04-24T01:17:10;1.80;;;1.03;;
19388;SDS011;9830;41.876;23.474;2023-04-24T01:19:36;1.60;;;1.50;;
19388;SDS011;9830;41.876;23.474;2023-04-24T01:22:02;1.13;;;0.47;;
19388;SDS011;9830;41.876;23.474;2023-04-24T01:24:28;0.77;;;0.23;;
19388;SDS011;9830;41.876;23.474;2023-04-24T01:26:55;0.77;;;0.67;;
19388;SDS011;9830;41.876;23.474;2023-04-24T01:29:20;1.10;;;0.67;;
19388;SDS011;9830;41.876;23.474;2023-04-24T01:31:46;0.53;;;0.53;;
19388;SDS011;9830;41.876;23.474;2023-04-24T01:34:12;0.80;;;0.80;;
19388;SDS011;9830;41.876;23.474;2023-04-24T01:36:38;0.33;;;0.33;;
19388;SDS011;9830;41.876;23.474;2023-04-24T01:39:04;1.70;;;0.83;;
19388;SDS011;9830;41.876;23.474;2023-04-24T01:41:31;2.20;;;1.03;;
19388;SDS011;9830;41.876;23.474;2023-04-24T01:43:57;0.37;;;0.37;;
19388;SDS011;9830;41.876;23.474;2023-04-24T01:46:23;0.90;;;0.90;;
19388;SDS011;9830;41.876;23.474;2023-04-24T01:48:49;1.00;;;0.90;;
19388;SDS011;9830;41.876;23.474;2023-04-24T01:51:16;0.30;;;0.30;;
19388;SDS011;9830;41.876;23.474;2023-04-24T01:53:42;1.23;;;1.13;;
19388;SDS011;9830;41.876;23.474;2023-04-24T01:56:08;0.30;;;0.30;;
19388;SDS011;9830;41.876;23.474;2023-04-24T01:58:34;1.00;;;0.93;;
19388;SDS011;9830;41.876;23.474;2023-04-24T02:01:00;1.00;;;1.00;;
19388;SDS011;9830;41.876;23.474;2023-04-24T02:03:26;1.87;;;1.60;;
19388;SDS011;9830;41.876;23.474;2023-04-24T02:05:52;0.83;;;0.73;;
19388;SDS011;9830;41.876;23.474;2023-04-24T02:08:17;1.07;;;1.07;;
19388;SDS011;9830;41.876;23.474;2023-04-24T02:10:43;2.37;;;1.13;;
19388;SDS011;9830;41.876;23.474;2023-04-24T02:13:09;0.73;;;0.70;;
19388;SDS011;9830;41.876;23.474;2023-04-24T02:15:35;2.10;;;1.17;;
19388;SDS011;9830;41.876;23.474;2023-04-24T02:18:01;0.97;;;0.57;;
19388;SDS011;9830;41.876;23.474;2023-04-24T02:20:26;4.73;;;1.20;;
19388;SDS011;9830;41.876;23.474;2023-04-24T02:22:52;1.37;;;1.20;;
19388;SDS011;9830;41.876;23.474;2023-04-24T02:25:18;0.93;;;0.93;;
19388;SDS011;9830;41.876;23.474;2023-04-24T02:27:44;1.73;;;1.63;;
19388;SDS011;9830;41.876;23.474;2023-04-24T02:30:09;2.63;;;1.90;;
19388;SDS011;9830;41.876;23.474;2023-04-24T02:32:35;1.10;;;1.10;;
19388;SDS011;9830;41.876;23.474;2023-04-24T02:35:01;1.10;;;0.80;;
19388;SDS011;9830;41.876;23.474;2023-04-24T02:37:26;1.27;;;1.27;;
19388;SDS011;9830;41.876;23.474;2023-04-24T02:39:52;3.73;;;1.50;;
19388;SDS011;9830;41.876;23.474;2023-04-24T02:42:18;3.07;;;0.80;;
19388;SDS011;9830;41.876;23.474;2023-04-24T02:44:43;0.93;;;0.93;;
19388;SDS011;9830;41.876;23.474;2023-04-24T02:47:09;1.80;;;1.70;;
19388;SDS011;9830;41.876;23.474;2023-04-24T02:49:35;3.40;;;1.70;;
19388;SDS011;9830;41.876;23.474;2023-04-24T02:52:00;0.33;;;0.33;;
19388;SDS011;9830;41.876;23.474;2023-04-24T02:54:26;0.93;;;0.90;;
19388;SDS011;9830;41.876;23.474;2023-04-24T02:56:52;1.67;;;1.57;;
19388;SDS011;9830;41.876;23.474;2023-04-24T02:59:17;1.03;;;0.90;;
19388;SDS011;9830;41.876;23.474;2023-04-24T03:01:43;19.00;;;2.60;;
19388;SDS011;9830;41.876;23.474;2023-04-24T03:04:08;1.50;;;1.40;;
19388;SDS011;9830;41.876;23.474;2023-04-24T03:06:35;2.10;;;1.57;;
19388;SDS011;9830;41.876;23.474;2023-04-24T03:09:01;1.87;;;1.17;;
19388;SDS011;9830;41.876;23.474;2023-04-24T03:11:26;2.77;;;1.57;;
19388;SDS011;9830;41.876;23.474;2023-04-24T03:13:52;1.53;;;1.40;;
19388;SDS011;9830;41.876;23.474;2023-04-24T03:16:18;0.93;;;0.93;;
19388;SDS011;9830;41.876;23.474;2023-04-24T03:18:44;0.73;;;0.67;;
19388;SDS011;9830;41.876;23.474;2023-04-24T03:21:09;3.77;;;1.97;;
19388;SDS011;9830;41.876;23.474;2023-04-24T03:23:36;1.67;;;1.17;;
19388;SDS011;9830;41.876;23.474;2023-04-24T03:26:02;3.70;;;2.80;;
19388;SDS011;9830;41.876;23.474;2023-04-24T03:28:27;2.77;;;1.80;;
19388;SDS011;9830;41.876;23.474;2023-04-24T03:30:53;2.73;;;1.43;;
19388;SDS011;9830;41.876;23.474;2023-04-24T03:33:19;1.87;;;1.63;;
19388;SDS011;9830;41.876;23.474;2023-04-24T03:35:45;4.00;;;1.47;;
19388;SDS011;9830;41.876;23.474;2023-04-24T03:38:10;1.03;;;0.93;;
19388;SDS011;9830;41.876;23.474;2023-04-24T03:40:36;1.10;;;1.00;;
19388;SDS011;9830;41.876;23.474;2023-04-24T03:43:02;0.63;;;0.63;;
19388;SDS011;9830;41.876;23.474;2023-04-24T03:45:27;0.90;;;0.80;;
19388;SDS011;9830;41.876;23.474;2023-04-24T03:47:53;0.53;;;0.53;;
19388;SDS011;9830;41.876;23.474;2023-04-24T03:50:19;4.23;;;1.67;;
19388;SDS011;9830;41.876;23.474;2023-04-24T03:52:45;2.03;;;1.10;;
19388;SDS011;9830;41.876;23.474;2023-04-24T03:55:11;0.57;;;0.57;;
19388;SDS011;9830;41.876;23.474;2023-04-24T03:57:38;2.77;;;2.03;;
19388;SDS011;9830;41.876;23.474;2023-04-24T04:00:07;3.60;;;1.13;;
19388;SDS011;9830;41.876;23.474;2023-04-24T04:02:34;3.70;;;3.37;;
19388;SDS011;9830;41.876;23.474;2023-04-24T04:04:59;2.43;;;2.23;;
19388;SDS011;9830;41.876;23.474;2023-04-24T04:07:25;6.23;;;4.37;;
19388;SDS011;9830;41.876;23.474;2023-04-24T04:09:50;11.87;;;4.50;;
19388;SDS011;9830;41.876;23.474;2023-04-24T04:12:16;27.50;;;16.60;;
19388;SDS011;9830;41.876;23.474;2023-04-24T04:14:42;69.53;;;22.70;;
19388;SDS011;9830;41.876;23.474;2023-04-24T04:17:07;48.03;;;18.70;;
19388;SDS011;9830;41.876;23.474;2023-04-24T04:19:33;57.53;;;26.37;;
19388;SDS011;9830;41.876;23.474;2023-04-24T04:21:59;29.17;;;12.13;;
19388;SDS011;9830;41.876;23.474;2023-04-24T04:24:24;30.17;;;9.00;;
19388;SDS011;9830;41.876;23.474;2023-04-24T04:26:51;8.53;;;4.60;;
19388;SDS011;9830;41.876;23.474;2023-04-24T04:29:17;4.27;;;3.17;;
19388;SDS011;9830;41.876;23.474;2023-04-24T04:31:47;14.50;;;4.27;;
19388;SDS011;9830;41.876;23.474;2023-04-24T04:34:13;8.13;;;3.83;;
19388;SDS011;9830;41.876;23.474;2023-04-24T04:36:39;11.83;;;3.43;;
19388;SDS011;9830;41.876;23.474;2023-04-24T04:39:08;5.97;;;3.17;;
19388;SDS011;9830;41.876;23.474;2023-04-24T04:41:33;4.07;;;1.87;;
19388;SDS011;9830;41.876;23.474;2023-04-24T04:44:05;2.00;;;1.90;;
19388;SDS011;9830;41.876;23.474;2023-04-24T04:46:31;4.43;;;2.50;;
19388;SDS011;9830;41.876;23.474;2023-04-24T04:49:02;2.43;;;1.70;;
19388;SDS011;9830;41.876;23.474;2023-04-24T04:51:28;6.40;;;2.03;;
19388;SDS011;9830;41.876;23.474;2023-04-24T04:53:54;5.40;;;1.97;;
19388;SDS011;9830;41.876;23.474;2023-04-24T04:56:19;4.27;;;2.30;;
19388;SDS011;9830;41.876;23.474;2023-04-24T04:58:45;2.87;;;2.60;;
19388;SDS011;9830;41.876;23.474;2023-04-24T05:01:11;2.97;;;1.87;;
19388;SDS011;9830;41.876;23.474;2023-04-24T05:03:37;7.87;;;2.10;;
19388;SDS011;9830;41.876;23.474;2023-04-24T05:06:03;2.63;;;1.83;;
19388;SDS011;9830;41.876;23.474;2023-04-24T05:08:29;1.67;;;1.57;;
19388;SDS011;9830;41.876;23.474;2023-04-24T05:10:55;3.53;;;2.83;;
19388;SDS011;9830;41.876;23.474;2023-04-24T05:13:21;1.63;;;1.50;;
19388;SDS011;9830;41.876;23.474;2023-04-24T05:15:47;4.03;;;3.13;;
19388;SDS011;9830;41.876;23.474;2023-04-24T05:18:13;4.20;;;1.50;;
19388;SDS011;9830;41.876;23.474;2023-04-24T05:20:39;3.00;;;2.13;;
19388;SDS011;9830;41.876;23.474;2023-04-24T05:23:04;0.87;;;0.87;;
19388;SDS011;9830;41.876;23.474;2023-04-24T05:25:32;0.90;;;0.90;;
19388;SDS011;9830;41.876;23.474;2023-04-24T05:28:00;2.20;;;1.77;;
19388;SDS011;9830;41.876;23.474;2023-04-24T05:30:26;1.90;;;1.80;;
19388;SDS011;9830;41.876;23.474;2023-04-24T05:32:52;6.67;;;2.87;;
19388;SDS011;9830;41.876;23.474;2023-04-24T05:35:18;4.47;;;2.57;;
19388;SDS011;9830;41.876;23.474;2023-04-24T05:37:47;3.17;;;2.53;;
19388;SDS011;9830;41.876;23.474;2023-04-24T05:40:12;4.50;;;2.97;;
19388;SDS011;9830;41.876;23.474;2023-04-24T05:42:39;5.20;;;2.60;;
19388;SDS011;9830;41.876;23.474;2023-04-24T05:45:05;5.90;;;3.67;;
19388;SDS011;9830;41.876;23.474;2023-04-24T05:47:31;2.00;;;1.90;;
19388;SDS011;9830;41.876;23.474;2023-04-24T05:49:57;1.53;;;1.43;;
19388;SDS011;9830;41.876;23.474;2023-04-24T05:52:23;3.00;;;2.37;;
19388;SDS011;9830;41.876;23.474;2023-04-24T05:54:49;1.53;;;1.40;;
19388;SDS011;9830;41.876;23.474;2023-04-24T05:57:15;3.33;;;2.83;;
19388;SDS011;9830;41.876;23.474;2023-04-24T05:59:41;3.33;;;2.60;;
19388;SDS011;9830;41.876;23.474;2023-04-24T06:02:07;2.13;;;1.93;;
19388;SDS011;9830;41.876;23.474;2023-04-24T06:04:33;3.87;;;2.93;;
19388;SDS011;9830;41.876;23.474;2023-04-24T06:06:59;6.40;;;2.03;;
19388;SDS011;9830;41.876;23.474;2023-04-24T06:09:25;2.23;;;2.07;;
19388;SDS011;9830;41.876;23.474;2023-04-24T06:11:51;3.87;;;2.00;;
19388;SDS011;9830;41.876;23.474;2023-04-24T06:14:21;1.20;;;1.20;;
19388;SDS011;9830;41.876;23.474;2023-04-24T06:16:47;2.47;;;1.20;;
19388;SDS011;9830;41.876;23.474;2023-04-24T06:19:13;1.97;;;1.77;;
19388;SDS011;9830;41.876;23.474;2023-04-24T06:21:39;3.60;;;2.30;;
19388;SDS011;9830;41.876;23.474;2023-04-24T06:24:13;1.10;;;1.10;;
19388;SDS011;9830;41.876;23.474;2023-04-24T06:26:40;2.33;;;1.00;;
19388;SDS011;9830;41.876;23.474;2023-04-24T06:29:06;1.17;;;1.17;;
19388;SDS011;9830;41.876;23.474;2023-04-24T06:31:32;1.93;;;1.73;;
19388;SDS011;9830;41.876;23.474;2023-04-24T06:34:05;0.80;;;0.80;;
19388;SDS011;9830;41.876;23.474;2023-04-24T06:36:31;1.20;;;1.20;;
19388;SDS011;9830;41.876;23.474;2023-04-24T06:38:59;4.17;;;1.77;;
19388;SDS011;9830;41.876;23.474;2023-04-24T06:41:25;2.07;;;1.87;;
19388;SDS011;9830;41.876;23.474;2023-04-24T06:43:51;1.90;;;1.63;;
19388;SDS011;9830;41.876;23.474;2023-04-24T06:46:17;2.23;;;1.87;;
19388;SDS011;9830;41.876;23.474;2023-04-24T06:48:43;2.40;;;2.03;;
19388;SDS011;9830;41.876;23.474;2023-04-24T06:51:09;1.67;;;1.53;;
19388;SDS011;9830;41.876;23.474;2023-04-24T06:53:35;2.60;;;2.40;;
19388;SDS011;9830;41.876;23.474;2023-04-24T06:56:01;4.37;;;3.70;;
19388;SDS011;9830;41.876;23.474;2023-04-24T06:58:27;1.97;;;1.87;;
19388;SDS011;9830;41.876;23.474;2023-04-24T07:00:53;0.85;;;0.85;;
19388;SDS011;9830;41.876;23.474;2023-04-24T07:03:21;1.83;;;1.33;;
19388;SDS011;9830;41.876;23.474;2023-04-24T07:05:49;1.63;;;1.52;;
19388;SDS011;9830;41.876;23.474;2023-04-24T07:08:16;2.17;;;1.98;;
19388;SDS011;9830;41.876;23.474;2023-04-24T07:10:43;1.90;;;1.80;;
19388;SDS011;9830;41.876;23.474;2023-04-24T07:13:10;1.83;;;1.73;;
19388;SDS011;9830;41.876;23.474;2023-04-24T07:15:38;3.20;;;1.42;;
19388;SDS011;9830;41.876;23.474;2023-04-24T07:18:06;0.82;;;0.60;;
19388;SDS011;9830;41.876;23.474;2023-04-24T07:20:31;1.02;;;1.00;;
19388;SDS011;9830;41.876;23.474;2023-04-24T07:23:00;1.40;;;1.05;;
19388;SDS011;9830;41.876;23.474;2023-04-24T07:25:26;0.95;;;0.73;;
19388;SDS011;9830;41.876;23.474;2023-04-24T07:27:55;1.73;;;1.60;;
19388;SDS011;9830;41.876;23.474;2023-04-24T07:30:21;3.70;;;1.25;;
19388;SDS011;9830;41.876;23.474;2023-04-24T07:32:46;2.47;;;0.90;;
19388;SDS011;9830;41.876;23.474;2023-04-24T07:35:12;1.33;;;1.13;;
19388;SDS011;9830;41.876;23.474;2023-04-24T07:37:38;2.63;;;1.38;;
19388;SDS011;9830;41.876;23.474;2023-04-24T07:40:04;1.17;;;1.08;;
19388;SDS011;9830;41.876;23.474;2023-04-24T07:42:36;0.57;;;0.57;;
19388;SDS011;9830;41.876;23.474;2023-04-24T07:45:03;0.40;;;0.40;;
19388;SDS011;9830;41.876;23.474;2023-04-24T07:47:30;1.00;;;0.95;;
19388;SDS011;9830;41.876;23.474;2023-04-24T07:49:57;0.43;;;0.43;;
19388;SDS011;9830;41.876;23.474;2023-04-24T07:52:24;0.57;;;0.57;;
19388;SDS011;9830;41.876;23.474;2023-04-24T07:54:50;0.60;;;0.60;;
19388;SDS011;9830;41.876;23.474;2023-04-24T07:57:17;2.85;;;1.27;;
19388;SDS011;9830;41.876;23.474;2023-04-24T07:59:43;0.70;;;0.70;;
19388;SDS011;9830;41.876;23.474;2023-04-24T08:02:09;1.15;;;1.15;;
19388;SDS011;9830;41.876;23.474;2023-04-24T08:04:36;3.30;;;1.52;;
19388;SDS011;9830;41.876;23.474;2023-04-24T08:07:01;0.77;;;0.77;;
19388;SDS011;9830;41.876;23.474;2023-04-24T08:09:27;2.58;;;1.15;;
19388;SDS011;9830;41.876;23.474;2023-04-24T08:11:54;0.82;;;0.82;;
19388;SDS011;9830;41.876;23.474;2023-04-24T08:14:19;0.98;;;0.85;;
19388;SDS011;9830;41.876;23.474;2023-04-24T08:16:46;0.63;;;0.63;;
19388;SDS011;9830;41.876;23.474;2023-04-24T08:19:12;1.65;;;1.20;;
19388;SDS011;9830;41.876;23.474;2023-04-24T08:21:37;0.55;;;0.55;;
19388;SDS011;9830;41.876;23.474;2023-04-24T08:24:03;1.20;;;1.20;;
19388;SDS011;9830;41.876;23.474;2023-04-24T08:26:32;0.77;;;0.77;;
19388;SDS011;9830;41.876;23.474;2023-04-24T08:28:58;0.40;;;0.40;;
19388;SDS011;9830;41.876;23.474;2023-04-24T08:31:24;1.10;;;1.10;;
19388;SDS011;9830;41.876;23.474;2023-04-24T08:33:51;0.60;;;0.60;;
19388;SDS011;9830;41.876;23.474;2023-04-24T08:36:17;1.95;;;1.17;;
19388;SDS011;9830;41.876;23.474;2023-04-24T08:38:43;1.83;;;1.33;;
19388;SDS011;9830;41.876;23.474;2023-04-24T08:41:12;0.47;;;0.47;;
19388;SDS011;9830;41.876;23.474;2023-04-24T08:43:40;0.57;;;0.57;;
19388;SDS011;9830;41.876;23.474;2023-04-24T08:46:06;0.20;;;0.20;;
19388;SDS011;9830;41.876;23.474;2023-04-24T08:48:34;1.55;;;1.13;;
19388;SDS011;9830;41.876;23.474;2023-04-24T08:51:00;0.65;;;0.65;;
19388;SDS011;9830;41.876;23.474;2023-04-24T08:53:27;1.50;;;1.40;;
19388;SDS011;9830;41.876;23.474;2023-04-24T08:55:54;1.02;;;0.93;;
19388;SDS011;9830;41.876;23.474;2023-04-24T08:58:27;1.75;;;0.95;;
19388;SDS011;9830;41.876;23.474;2023-04-24T09:00:57;1.10;;;1.02;;
19388;SDS011;9830;41.876;23.474;2023-04-24T09:03:27;0.63;;;0.63;;
19388;SDS011;9830;41.876;23.474;2023-04-24T09:05:53;0.80;;;0.80;;
19388;SDS011;9830;41.876;23.474;2023-04-24T09:08:20;1.92;;;1.30;;
19388;SDS011;9830;41.876;23.474;2023-04-24T09:10:53;1.00;;;1.00;;
19388;SDS011;9830;41.876;23.474;2023-04-24T09:13:20;0.95;;;0.95;;
19388;SDS011;9830;41.876;23.474;2023-04-24T09:15:46;0.65;;;0.65;;
19388;SDS011;9830;41.876;23.474;2023-04-24T09:18:13;1.35;;;1.25;;
19388;SDS011;9830;41.876;23.474;2023-04-24T09:20:58;1.10;;;1.02;;
19388;SDS011;9830;41.876;23.474;2023-04-24T09:23:29;0.40;;;0.40;;
19388;SDS011;9830;41.876;23.474;2023-04-24T09:25:56;1.20;;;1.15;;
19388;SDS011;9830;41.876;23.474;2023-04-24T09:28:32;0.60;;;0.60;;
19388;SDS011;9830;41.876;23.474;2023-04-24T09:31:14;1.42;;;1.23;;
19388;SDS011;9830;41.876;23.474;2023-04-24T09:38:59;5.15;;;1.10;;
19388;SDS011;9830;41.876;23.474;2023-04-24T09:41:26;1.33;;;1.23;;
19388;SDS011;9830;41.876;23.474;2023-04-24T09:43:54;0.80;;;0.80;;
19388;SDS011;9830;41.876;23.474;2023-04-24T09:46:29;0.28;;;0.28;;
19388;SDS011;9830;41.876;23.474;2023-04-24T09:49:13;1.38;;;0.85;;
19388;SDS011;9830;41.876;23.474;2023-04-24T09:51:43;1.63;;;0.93;;
19388;SDS011;9830;41.876;23.474;2023-04-24T09:54:15;0.85;;;0.85;;
19388;SDS011;9830;41.876;23.474;2023-04-24T09:56:43;1.30;;;0.63;;
19388;SDS011;9830;41.876;23.474;2023-04-24T09:59:10;1.42;;;0.85;;
19388;SDS011;9830;41.876;23.474;2023-04-24T10:01:57;0.88;;;0.88;;
19388;SDS011;9830;41.876;23.474;2023-04-24T10:04:25;0.87;;;0.70;;
19388;SDS011;9830;41.876;23.474;2023-04-24T10:06:52;1.47;;;1.17;;
19388;SDS011;9830;41.876;23.474;2023-04-24T10:09:22;0.73;;;0.70;;
19388;SDS011;9830;41.876;23.474;2023-04-24T10:11:51;1.80;;;0.60;;
19388;SDS011;9830;41.876;23.474;2023-04-24T10:14:24;1.70;;;1.40;;
19388;SDS011;9830;41.876;23.474;2023-04-24T10:16:52;0.53;;;0.53;;
19388;SDS011;9830;41.876;23.474;2023-04-24T10:19:20;0.10;;;0.10;;
19388;SDS011;9830;41.876;23.474;2023-04-24T10:21:46;0.47;;;0.47;;
19388;SDS011;9830;41.876;23.474;2023-04-24T10:24:13;0.73;;;0.43;;
19388;SDS011;9830;41.876;23.474;2023-04-24T10:26:43;0.47;;;0.47;;
19388;SDS011;9830;41.876;23.474;2023-04-24T10:29:14;0.93;;;0.90;;
19388;SDS011;9830;41.876;23.474;2023-04-24T10:31:42;1.60;;;0.87;;
19388;SDS011;9830;41.876;23.474;2023-04-24T10:34:13;0.87;;;0.50;;
19388;SDS011;9830;41.876;23.474;2023-04-24T10:36:44;1.00;;;0.93;;
19388;SDS011;9830;41.876;23.474;2023-04-24T10:39:21;2.90;;;1.20;;
19388;SDS011;9830;41.876;23.474;2023-04-24T10:41:53;0.70;;;0.70;;
19388;SDS011;9830;41.876;23.474;2023-04-24T10:44:23;0.47;;;0.47;;
19388;SDS011;9830;41.876;23.474;2023-04-24T10:46:52;0.53;;;0.53;;
19388;SDS011;9830;41.876;23.474;2023-04-24T10:49:30;0.63;;;0.63;;
19388;SDS011;9830;41.876;23.474;2023-04-24T10:52:01;0.77;;;0.77;;
19388;SDS011;9830;41.876;23.474;2023-04-24T10:54:41;2.77;;;1.20;;
19388;SDS011;9830;41.876;23.474;2023-04-24T10:59:46;0.80;;;0.80;;
19388;SDS011;9830;41.876;23.474;2023-04-24T11:02:20;0.03;;;0.03;;
19388;SDS011;9830;41.876;23.474;2023-04-24T11:05:06;0.70;;;0.53;;
19388;SDS011;9830;41.876;23.474;2023-04-24T11:13:15;0.20;;;0.20;;
19388;SDS011;9830;41.876;23.474;2023-04-24T11:16:11;2.67;;;0.73;;
19388;SDS011;9830;41.876;23.474;2023-04-24T11:19:01;0.27;;;0.27;;
19388;SDS011;9830;41.876;23.474;2023-04-24T11:21:38;0.40;;;0.40;;
19388;SDS011;9830;41.876;23.474;2023-04-24T11:27:06;0.40;;;0.40;;
19388;SDS011;9830;41.876;23.474;2023-04-24T11:29:41;1.90;;;0.70;;
19388;SDS011;9830;41.876;23.474;2023-04-24T11:34:54;1.17;;;0.70;;
19388;SDS011;9830;41.876;23.474;2023-04-24T11:37:26;0.73;;;0.73;;
19388;SDS011;9830;41.876;23.474;2023-04-24T11:40:05;0.47;;;0.47;;
19388;SDS011;9830;41.876;23.474;2023-04-24T11:42:36;0.67;;;0.67;;
19388;SDS011;9830;41.876;23.474;2023-04-24T11:45:10;0.57;;;0.57;;
19388;SDS011;9830;41.876;23.474;2023-04-24T11:47:44;0.93;;;0.93;;
19388;SDS011;9830;41.876;23.474;2023-04-24T11:50:12;0.97;;;0.87;;
19388;SDS011;9830;41.876;23.474;2023-04-24T11:52:41;0.37;;;0.37;;
19388;SDS011;9830;41.876;23.474;2023-04-24T11:55:29;0.73;;;0.67;;
19388;SDS011;9830;41.876;23.474;2023-04-24T11:57:56;0.80;;;0.80;;
19388;SDS011;9830;41.876;23.474;2023-04-24T12:00:27;0.37;;;0.37;;
19388;SDS011;9830;41.876;23.474;2023-04-24T12:05:50;0.50;;;0.50;;
19388;SDS011;9830;41.876;23.474;2023-04-24T12:08:32;1.00;;;0.67;;
19388;SDS011;9830;41.876;23.474;2023-04-24T12:11:05;1.23;;;0.47;;
19388;SDS011;9830;41.876;23.474;2023-04-24T12:13:33;0.13;;;0.13;;
19388;SDS011;9830;41.876;23.474;2023-04-24T12:16:06;0.37;;;0.37;;
19388;SDS011;9830;41.876;23.474;2023-04-24T12:18:32;1.73;;;1.50;;
19388;SDS011;9830;41.876;23.474;2023-04-24T12:21:16;0.47;;;0.47;;
19388;SDS011;9830;41.876;23.474;2023-04-24T12:23:43;3.20;;;1.25;;
19388;SDS011;9830;41.876;23.474;2023-04-24T12:26:11;0.63;;;0.63;;
19388;SDS011;9830;41.876;23.474;2023-04-24T12:28:41;0.32;;;0.32;;
19388;SDS011;9830;41.876;23.474;2023-04-24T12:31:07;0.60;;;0.60;;
19388;SDS011;9830;41.876;23.474;2023-04-24T12:33:36;0.50;;;0.50;;
19388;SDS011;9830;41.876;23.474;2023-04-24T12:36:06;0.25;;;0.25;;
19388;SDS011;9830;41.876;23.474;2023-04-24T12:38:39;2.35;;;1.08;;
19388;SDS011;9830;41.876;23.474;2023-04-24T12:41:13;0.38;;;0.38;;
19388;SDS011;9830;41.876;23.474;2023-04-24T12:44:01;11.15;;;0.75;;
19388;SDS011;9830;41.876;23.474;2023-04-24T12:46:27;0.65;;;0.52;;
19388;SDS011;9830;41.876;23.474;2023-04-24T12:48:53;0.50;;;0.50;;
19388;SDS011;9830;41.876;23.474;2023-04-24T12:51:33;0.45;;;0.45;;
19388;SDS011;9830;41.876;23.474;2023-04-24T12:53:59;0.55;;;0.52;;
19388;SDS011;9830;41.876;23.474;2023-04-24T12:56:26;0.83;;;0.67;;
19388;SDS011;9830;41.876;23.474;2023-04-24T12:58:53;0.60;;;0.60;;
19388;SDS011;9830;41.876;23.474;2023-04-24T13:01:20;0.30;;;0.30;;
19388;SDS011;9830;41.876;23.474;2023-04-24T13:03:50;0.60;;;0.60;;
19388;SDS011;9830;41.876;23.474;2023-04-24T13:06:17;1.83;;;1.70;;
19388;SDS011;9830;41.876;23.474;2023-04-24T13:08:49;0.30;;;0.30;;
19388;SDS011;9830;41.876;23.474;2023-04-24T13:11:16;0.63;;;0.60;;
19388;SDS011;9830;41.876;23.474;2023-04-24T13:13:43;0.73;;;0.63;;
19388;SDS011;9830;41.876;23.474;2023-04-24T13:16:09;0.97;;;0.93;;
19388;SDS011;9830;41.876;23.474;2023-04-24T13:18:36;0.20;;;0.20;;
19388;SDS011;9830;41.876;23.474;2023-04-24T13:21:06;0.47;;;0.47;;
19388;SDS011;9830;41.876;23.474;2023-04-24T13:23:32;2.33;;;0.97;;
19388;SDS011;9830;41.876;23.474;2023-04-24T13:26:03;5.70;;;1.50;;
19388;SDS011;9830;41.876;23.474;2023-04-24T13:28:30;0.57;;;0.47;;
19388;SDS011;9830;41.876;23.474;2023-04-24T13:30:56;0.63;;;0.63;;
19388;SDS011;9830;41.876;23.474;2023-04-24T13:33:23;0.25;;;0.25;;
19388;SDS011;9830;41.876;23.474;2023-04-24T13:35:49;3.97;;;1.58;;
19388;SDS011;9830;41.876;23.474;2023-04-24T13:38:15;0.50;;;0.50;;
19388;SDS011;9830;41.876;23.474;2023-04-24T13:40:42;0.63;;;0.35;;
19388;SDS011;9830;41.876;23.474;2023-04-24T13:43:11;9.55;;;1.13;;
19388;SDS011;9830;41.876;23.474;2023-04-24T13:45:40;0.60;;;0.60;;
19388;SDS011;9830;41.876;23.474;2023-04-24T13:48:07;1.95;;;1.25;;
19388;SDS011;9830;41.876;23.474;2023-04-24T13:50:34;0.77;;;0.40;;
19388;SDS011;9830;41.876;23.474;2023-04-24T13:53:02;0.77;;;0.77;;
19388;SDS011;9830;41.876;23.474;2023-04-24T13:55:32;1.10;;;1.05;;
19388;SDS011;9830;41.876;23.474;2023-04-24T13:57:58;0.73;;;0.73;;
19388;SDS011;9830;41.876;23.474;2023-04-24T14:00:24;0.35;;;0.35;;
19388;SDS011;9830;41.876;23.474;2023-04-24T14:02:53;0.50;;;0.50;;
19388;SDS011;9830;41.876;23.474;2023-04-24T14:05:19;0.35;;;0.35;;
19388;SDS011;9830;41.876;23.474;2023-04-24T14:07:46;0.77;;;0.77;;
19388;SDS011;9830;41.876;23.474;2023-04-24T14:10:12;0.25;;;0.25;;
19388;SDS011;9830;41.876;23.474;2023-04-24T14:12:38;0.63;;;0.63;;
19388;SDS011;9830;41.876;23.474;2023-04-24T14:15:04;0.47;;;0.47;;
19388;SDS011;9830;41.876;23.474;2023-04-24T14:17:31;1.60;;;0.85;;
19388;SDS011;9830;41.876;23.474;2023-04-24T14:19:56;0.40;;;0.40;;
19388;SDS011;9830;41.876;23.474;2023-04-24T14:22:24;0.33;;;0.33;;
19388;SDS011;9830;41.876;23.474;2023-04-24T14:24:50;0.70;;;0.43;;
19388;SDS011;9830;41.876;23.474;2023-04-24T14:27:16;0.50;;;0.40;;
19388;SDS011;9830;41.876;23.474;2023-04-24T14:29:41;0.63;;;0.50;;
19388;SDS011;9830;41.876;23.474;2023-04-24T14:32:07;0.10;;;0.10;;
19388;SDS011;9830;41.876;23.474;2023-04-24T14:34:34;0.30;;;0.30;;
19388;SDS011;9830;41.876;23.474;2023-04-24T14:37:00;0.57;;;0.57;;
19388;SDS011;9830;41.876;23.474;2023-04-24T14:39:25;0.33;;;0.33;;
19388;SDS011;9830;41.876;23.474;2023-04-24T14:41:51;0.47;;;0.47;;
19388;SDS011;9830;41.876;23.474;2023-04-24T14:44:17;0.20;;;0.20;;
19388;SDS011;9830;41.876;23.474;2023-04-24T14:46:42;0.40;;;0.40;;
19388;SDS011;9830;41.876;23.474;2023-04-24T14:49:08;0.53;;;0.53;;
19388;SDS011;9830;41.876;23.474;2023-04-24T14:51:35;0.10;;;0.10;;
19388;SDS011;9830;41.876;23.474;2023-04-24T14:54:01;0.40;;;0.40;;
19388;SDS011;9830;41.876;23.474;2023-04-24T14:56:27;1.40;;;1.00;;
19388;SDS011;9830;41.876;23.474;2023-04-24T14:58:53;0.53;;;0.53;;
19388;SDS011;9830;41.876;23.474;2023-04-24T15:01:19;0.23;;;0.23;;
19388;SDS011;9830;41.876;23.474;2023-04-24T15:03:46;0.10;;;0.10;;
19388;SDS011;9830;41.876;23.474;2023-04-24T15:06:11;0.30;;;0.30;;
19388;SDS011;9830;41.876;23.474;2023-04-24T15:08:37;0.57;;;0.57;;
19388;SDS011;9830;41.876;23.474;2023-04-24T15:11:03;0.20;;;0.20;;
19388;SDS011;9830;41.876;23.474;2023-04-24T15:13:29;1.10;;;0.93;;